sensor_id;sensor_type;location;lat;lon;timestamp;pressure;altitude;pressure_sealevel;temperature;humidity
64521;BME280;50896;46.714;17.322;2023-07-31T00:01:11;100285.34;;;18.68;100.00
64521;BME280;50896;46.714;17.322;2023-07-31T00:03:42;100273.59;;;18.62;100.00
64521;BME280;50896;46.714;17.322;2023-07-31T00:06:17;100273.59;;;18.62;100.00
64521;BME280;50896;46.714;17.322;2023-07-31T00:08:45;100275.69;;;18.60;100.00
64521;BME280;50896;46.714;17.322;2023-07-31T00:11:22;100274.19;;;18.65;100.00
64521;BME280;50896;46.714;17.322;2023-07-31T00:13:56;100264.88;;;18.67;100.00
64521;BME280;50896;46.714;17.322;2023-07-31T00:16:28;100273.00;;;18.60;100.00
64521;BME280;50896;46.714;17.322;2023-07-31T00:18:59;100280.94;;;18.49;100.00
64521;BME280;50896;46.714;17.322;2023-07-31T00:21:33;100286.16;;;18.43;100.00
64521;BME280;50896;46.714;17.322;2023-07-31T00:24:03;100282.06;;;18.34;100.00
64521;BME280;50896;46.714;17.322;2023-07-31T00:26:34;100287.63;;;18.39;100.00
64521;BME280;50896;46.714;17.322;2023-07-31T00:29:10;100284.31;;;18.37;100.00
64521;BME280;50896;46.714;17.322;2023-07-31T00:31:41;100280.81;;;18.37;100.00
64521;BME280;50896;46.714;17.322;2023-07-31T00:34:37;100278.94;;;18.37;100.00
64521;BME280;50896;46.714;17.322;2023-07-31T00:37:10;100283.72;;;18.35;100.00
64521;BME280;50896;46.714;17.322;2023-07-31T00:39:45;100277.94;;;18.32;100.00
64521;BME280;50896;46.714;17.322;2023-07-31T00:42:18;100276.72;;;18.27;100.00
64521;BME280;50896;46.714;17.322;2023-07-31T00:44:47;100277.38;;;18.23;100.00
64521;BME280;50896;46.714;17.322;2023-07-31T00:47:17;100269.34;;;18.16;100.00
64521;BME280;50896;46.714;17.322;2023-07-31T00:49:46;100274.94;;;18.15;100.00
64521;BME280;50896;46.714;17.322;2023-07-31T00:52:27;100270.81;;;18.12;100.00
64521;BME280;50896;46.714;17.322;2023-07-31T00:54:59;100282.41;;;18.13;100.00
64521;BME280;50896;46.714;17.322;2023-07-31T00:57:34;100275.16;;;18.13;100.00
64521;BME280;50896;46.714;17.322;2023-07-31T01:00:04;100278.91;;;18.05;100.00
64521;BME280;50896;46.714;17.322;2023-07-31T01:02:40;100280.00;;;17.98;100.00
64521;BME280;50896;46.714;17.322;2023-07-31T01:05:12;100283.94;;;17.95;100.00
64521;BME280;50896;46.714;17.322;2023-07-31T01:07:50;100292.44;;;17.92;100.00
64521;BME280;50896;46.714;17.322;2023-07-31T01:10:38;100284.06;;;18.07;100.00
64521;BME280;50896;46.714;17.322;2023-07-31T01:13:17;100298.16;;;18.48;100.00
64521;BME280;50896;46.714;17.322;2023-07-31T01:15:49;100306.78;;;18.82;100.00
64521;BME280;50896;46.714;17.322;2023-07-31T01:18:20;100309.84;;;18.92;100.00
64521;BME280;50896;46.714;17.322;2023-07-31T01:20:59;100310.88;;;19.16;100.00
64521;BME280;50896;46.714;17.322;2023-07-31T01:26:21;100314.81;;;19.57;100.00
64521;BME280;50896;46.714;17.322;2023-07-31T01:29:23;100316.03;;;19.80;100.00
64521;BME280;50896;46.714;17.322;2023-07-31T01:32:09;100321.97;;;19.89;100.00
64521;BME280;50896;46.714;17.322;2023-07-31T01:34:39;100313.34;;;19.98;100.00
64521;BME280;50896;46.714;17.322;2023-07-31T01:37:11;100322.00;;;20.01;100.00
64521;BME280;50896;46.714;17.322;2023-07-31T01:39:43;100325.38;;;20.14;100.00
64521;BME280;50896;46.714;17.322;2023-07-31T01:42:12;100324.25;;;20.22;100.00
64521;BME280;50896;46.714;17.322;2023-07-31T01:44:43;100323.78;;;20.25;100.00
64521;BME280;50896;46.714;17.322;2023-07-31T01:47:13;100322.03;;;20.31;100.00
64521;BME280;50896;46.714;17.322;2023-07-31T01:49:44;100317.97;;;20.40;100.00
64521;BME280;50896;46.714;17.322;2023-07-31T01:52:19;100321.88;;;20.44;100.00
64521;BME280;50896;46.714;17.322;2023-07-31T01:54:47;100314.47;;;20.52;100.00
64521;BME280;50896;46.714;17.322;2023-07-31T01:57:21;100304.50;;;20.52;100.00
64521;BME280;50896;46.714;17.322;2023-07-31T01:59:56;100299.22;;;20.57;100.00
64521;BME280;50896;46.714;17.322;2023-07-31T02:02:24;100305.44;;;20.58;100.00
64521;BME280;50896;46.714;17.322;2023-07-31T02:04:52;100315.78;;;20.61;100.00
64521;BME280;50896;46.714;17.322;2023-07-31T02:07:23;100309.94;;;20.64;100.00
64521;BME280;50896;46.714;17.322;2023-07-31T02:09:55;100316.66;;;20.73;100.00
64521;BME280;50896;46.714;17.322;2023-07-31T02:12:28;100328.06;;;20.75;100.00
64521;BME280;50896;46.714;17.322;2023-07-31T02:15:01;100311.41;;;20.78;100.00
64521;BME280;50896;46.714;17.322;2023-07-31T02:17:31;100314.09;;;20.78;100.00
64521;BME280;50896;46.714;17.322;2023-07-31T02:20:09;100310.69;;;20.71;100.00
64521;BME280;50896;46.714;17.322;2023-07-31T02:22:39;100309.16;;;20.75;100.00
64521;BME280;50896;46.714;17.322;2023-07-31T02:25:10;100318.94;;;20.76;100.00
64521;BME280;50896;46.714;17.322;2023-07-31T02:27:37;100313.06;;;20.79;100.00
64521;BME280;50896;46.714;17.322;2023-07-31T02:30:05;100322.31;;;20.72;100.00
64521;BME280;50896;46.714;17.322;2023-07-31T02:32:38;100318.63;;;20.66;100.00
64521;BME280;50896;46.714;17.322;2023-07-31T02:35:09;100322.03;;;20.61;100.00
64521;BME280;50896;46.714;17.322;2023-07-31T02:37:38;100324.44;;;20.70;100.00
64521;BME280;50896;46.714;17.322;2023-07-31T02:40:08;100325.63;;;20.74;100.00
64521;BME280;50896;46.714;17.322;2023-07-31T02:42:40;100318.19;;;20.69;100.00
64521;BME280;50896;46.714;17.322;2023-07-31T02:45:17;100319.66;;;20.65;100.00
64521;BME280;50896;46.714;17.322;2023-07-31T02:47:48;100312.63;;;20.64;100.00
64521;BME280;50896;46.714;17.322;2023-07-31T02:50:18;100312.34;;;20.54;100.00
64521;BME280;50896;46.714;17.322;2023-07-31T02:52:46;100308.72;;;20.48;100.00
64521;BME280;50896;46.714;17.322;2023-07-31T02:55:24;100313.44;;;20.53;100.00
64521;BME280;50896;46.714;17.322;2023-07-31T02:58:05;100312.25;;;20.48;100.00
64521;BME280;50896;46.714;17.322;2023-07-31T03:00:43;100319.03;;;20.39;100.00
64521;BME280;50896;46.714;17.322;2023-07-31T03:03:10;100315.22;;;20.28;100.00
64521;BME280;50896;46.714;17.322;2023-07-31T03:05:39;100323.69;;;20.32;100.00
64521;BME280;50896;46.714;17.322;2023-07-31T03:08:12;100322.09;;;20.43;100.00
64521;BME280;50896;46.714;17.322;2023-07-31T03:10:47;100318.94;;;20.58;100.00
64521;BME280;50896;46.714;17.322;2023-07-31T03:13:14;100307.38;;;20.69;100.00
64521;BME280;50896;46.714;17.322;2023-07-31T03:15:48;100309.41;;;20.74;100.00
64521;BME280;50896;46.714;17.322;2023-07-31T03:18:20;100310.25;;;20.86;100.00
64521;BME280;50896;46.714;17.322;2023-07-31T03:20:56;100303.44;;;20.83;100.00
64521;BME280;50896;46.714;17.322;2023-07-31T03:23:27;100305.91;;;20.85;100.00
64521;BME280;50896;46.714;17.322;2023-07-31T03:26:06;100314.69;;;20.80;100.00
64521;BME280;50896;46.714;17.322;2023-07-31T03:28:35;100311.75;;;20.82;100.00
64521;BME280;50896;46.714;17.322;2023-07-31T03:31:04;100319.25;;;20.80;100.00
64521;BME280;50896;46.714;17.322;2023-07-31T03:33:35;100313.66;;;20.93;100.00
64521;BME280;50896;46.714;17.322;2023-07-31T03:36:06;100307.41;;;20.93;100.00
64521;BME280;50896;46.714;17.322;2023-07-31T03:38:36;100317.16;;;20.94;100.00
64521;BME280;50896;46.714;17.322;2023-07-31T03:41:06;100319.63;;;20.95;100.00
64521;BME280;50896;46.714;17.322;2023-07-31T03:43:46;100310.13;;;20.93;100.00
64521;BME280;50896;46.714;17.322;2023-07-31T03:46:19;100312.94;;;20.98;100.00
64521;BME280;50896;46.714;17.322;2023-07-31T03:48:50;100305.78;;;20.92;100.00
64521;BME280;50896;46.714;17.322;2023-07-31T03:51:19;100327.16;;;20.93;100.00
64521;BME280;50896;46.714;17.322;2023-07-31T03:53:55;100318.13;;;20.99;100.00
64521;BME280;50896;46.714;17.322;2023-07-31T03:56:34;100327.75;;;20.95;100.00
64521;BME280;50896;46.714;17.322;2023-07-31T03:59:05;100337.13;;;20.93;100.00
64521;BME280;50896;46.714;17.322;2023-07-31T04:01:39;100328.59;;;20.96;100.00
64521;BME280;50896;46.714;17.322;2023-07-31T04:04:10;100335.03;;;20.95;100.00
64521;BME280;50896;46.714;17.322;2023-07-31T04:06:43;100334.66;;;20.91;100.00
64521;BME280;50896;46.714;17.322;2023-07-31T04:09:11;100341.97;;;20.91;100.00
64521;BME280;50896;46.714;17.322;2023-07-31T04:11:47;100337.97;;;20.93;100.00
64521;BME280;50896;46.714;17.322;2023-07-31T04:14:19;100335.50;;;20.92;100.00
64521;BME280;50896;46.714;17.322;2023-07-31T04:16:48;100341.25;;;20.95;100.00
64521;BME280;50896;46.714;17.322;2023-07-31T04:19:20;100342.53;;;20.93;100.00
64521;BME280;50896;46.714;17.322;2023-07-31T04:22:22;100352.19;;;21.00;100.00
64521;BME280;50896;46.714;17.322;2023-07-31T04:25:04;100353.09;;;20.94;100.00
64521;BME280;50896;46.714;17.322;2023-07-31T04:27:33;100353.47;;;20.98;100.00
64521;BME280;50896;46.714;17.322;2023-07-31T04:30:01;100351.34;;;21.00;100.00
64521;BME280;50896;46.714;17.322;2023-07-31T04:32:34;100353.09;;;20.94;100.00
64521;BME280;50896;46.714;17.322;2023-07-31T04:35:04;100353.09;;;20.94;100.00
64521;BME280;50896;46.714;17.322;2023-07-31T04:37:32;100347.25;;;20.97;100.00
64521;BME280;50896;46.714;17.322;2023-07-31T04:40:00;100353.25;;;20.99;100.00
64521;BME280;50896;46.714;17.322;2023-07-31T04:42:33;100354.91;;;21.00;100.00
64521;BME280;50896;46.714;17.322;2023-07-31T04:45:08;100355.13;;;20.99;100.00
64521;BME280;50896;46.714;17.322;2023-07-31T04:47:46;100357.13;;;21.04;100.00
64521;BME280;50896;46.714;17.322;2023-07-31T04:50:18;100360.31;;;21.12;100.00
64521;BME280;50896;46.714;17.322;2023-07-31T04:52:50;100356.78;;;21.24;100.00
64521;BME280;50896;46.714;17.322;2023-07-31T04:55:24;100349.41;;;21.31;100.00
64521;BME280;50896;46.714;17.322;2023-07-31T04:57:54;100343.41;;;21.41;100.00
64521;BME280;50896;46.714;17.322;2023-07-31T05:00:27;100351.03;;;21.32;100.00
64521;BME280;50896;46.714;17.322;2023-07-31T05:02:55;100351.50;;;21.29;100.00
64521;BME280;50896;46.714;17.322;2023-07-31T05:05:25;100351.50;;;21.29;100.00
64521;BME280;50896;46.714;17.322;2023-07-31T05:07:56;100352.19;;;21.36;100.00
64521;BME280;50896;46.714;17.322;2023-07-31T05:10:29;100347.88;;;21.35;100.00
64521;BME280;50896;46.714;17.322;2023-07-31T05:13:03;100365.47;;;21.38;100.00
64521;BME280;50896;46.714;17.322;2023-07-31T05:15:38;100355.84;;;21.42;100.00
64521;BME280;50896;46.714;17.322;2023-07-31T05:18:07;100365.63;;;21.43;100.00
64521;BME280;50896;46.714;17.322;2023-07-31T05:20:38;100362.66;;;21.44;100.00
64521;BME280;50896;46.714;17.322;2023-07-31T05:23:10;100357.75;;;21.41;100.00
64521;BME280;50896;46.714;17.322;2023-07-31T05:25:43;100356.56;;;21.37;100.00
64521;BME280;50896;46.714;17.322;2023-07-31T05:28:12;100369.03;;;21.38;100.00
64521;BME280;50896;46.714;17.322;2023-07-31T05:30:49;100372.06;;;21.42;100.00
64521;BME280;50896;46.714;17.322;2023-07-31T05:33:17;100366.22;;;21.57;100.00
64521;BME280;50896;46.714;17.322;2023-07-31T05:35:52;100368.94;;;21.68;100.00
64521;BME280;50896;46.714;17.322;2023-07-31T05:38:26;100369.16;;;21.55;100.00
64521;BME280;50896;46.714;17.322;2023-07-31T05:40:56;100378.19;;;21.37;100.00
64521;BME280;50896;46.714;17.322;2023-07-31T05:43:29;100375.97;;;21.34;100.00
64521;BME280;50896;46.714;17.322;2023-07-31T05:46:06;100382.28;;;21.28;100.00
64521;BME280;50896;46.714;17.322;2023-07-31T05:48:39;100390.66;;;21.38;100.00
64521;BME280;50896;46.714;17.322;2023-07-31T05:51:11;100385.88;;;21.52;100.00
64521;BME280;50896;46.714;17.322;2023-07-31T05:53:49;100387.03;;;21.68;100.00
64521;BME280;50896;46.714;17.322;2023-07-31T05:56:17;100390.44;;;21.75;100.00
64521;BME280;50896;46.714;17.322;2023-07-31T05:58:49;100393.38;;;21.85;100.00
64521;BME280;50896;46.714;17.322;2023-07-31T06:01:19;100396.56;;;21.82;100.00
64521;BME280;50896;46.714;17.322;2023-07-31T06:03:52;100387.47;;;21.89;100.00
64521;BME280;50896;46.714;17.322;2023-07-31T06:06:22;100385.59;;;21.89;100.00
64521;BME280;50896;46.714;17.322;2023-07-31T06:08:57;100385.22;;;21.97;100.00
64521;BME280;50896;46.714;17.322;2023-07-31T06:11:42;100398.94;;;22.19;100.00
64521;BME280;50896;46.714;17.322;2023-07-31T06:14:19;100387.25;;;22.43;100.00
64521;BME280;50896;46.714;17.322;2023-07-31T06:16:53;100394.34;;;22.61;100.00
64521;BME280;50896;46.714;17.322;2023-07-31T06:19:21;100391.31;;;22.74;100.00
64521;BME280;50896;46.714;17.322;2023-07-31T06:21:52;100396.69;;;22.69;100.00
64521;BME280;50896;46.714;17.322;2023-07-31T06:24:23;100386.91;;;22.68;100.00
64521;BME280;50896;46.714;17.322;2023-07-31T06:26:51;100390.41;;;22.68;100.00
64521;BME280;50896;46.714;17.322;2023-07-31T06:29:18;100388.19;;;22.65;100.00
64521;BME280;50896;46.714;17.322;2023-07-31T06:31:47;100390.84;;;22.77;100.00
64521;BME280;50896;46.714;17.322;2023-07-31T06:34:19;100389.47;;;22.92;100.00
64521;BME280;50896;46.714;17.322;2023-07-31T06:36:48;100392.69;;;23.06;100.00
64521;BME280;50896;46.714;17.322;2023-07-31T06:39:21;100390.25;;;23.21;100.00
64521;BME280;50896;46.714;17.322;2023-07-31T06:41:57;100392.06;;;23.15;100.00
64521;BME280;50896;46.714;17.322;2023-07-31T06:44:32;100390.53;;;23.08;100.00
64521;BME280;50896;46.714;17.322;2023-07-31T06:47:02;100395.34;;;23.17;100.00
64521;BME280;50896;46.714;17.322;2023-07-31T06:49:31;100391.81;;;23.17;100.00
64521;BME280;50896;46.714;17.322;2023-07-31T06:52:03;100394.78;;;23.15;100.00
64521;BME280;50896;46.714;17.322;2023-07-31T06:54:31;100389.91;;;23.17;97.78
64521;BME280;50896;46.714;17.322;2023-07-31T06:57:01;100406.13;;;23.29;100.00
64521;BME280;50896;46.714;17.322;2023-07-31T06:59:31;100398.47;;;23.26;90.92
64521;BME280;50896;46.714;17.322;2023-07-31T07:02:09;100405.03;;;23.30;100.00
64521;BME280;50896;46.714;17.322;2023-07-31T07:04:39;100414.31;;;23.34;96.85
64521;BME280;50896;46.714;17.322;2023-07-31T07:07:10;100416.34;;;23.44;83.81
64521;BME280;50896;46.714;17.322;2023-07-31T07:09:43;100404.44;;;23.45;80.29
64521;BME280;50896;46.714;17.322;2023-07-31T07:12:10;100409.72;;;23.52;82.35
64521;BME280;50896;46.714;17.322;2023-07-31T07:14:39;100412.75;;;23.55;74.87
64521;BME280;50896;46.714;17.322;2023-07-31T07:17:11;100412.91;;;23.66;78.76
64521;BME280;50896;46.714;17.322;2023-07-31T07:19:43;100406.66;;;23.65;78.29
64521;BME280;50896;46.714;17.322;2023-07-31T07:22:15;100406.28;;;23.79;77.85
64521;BME280;50896;46.714;17.322;2023-07-31T07:24:44;100413.78;;;23.88;75.58
64521;BME280;50896;46.714;17.322;2023-07-31T07:27:27;100417.22;;;23.84;76.07
64521;BME280;50896;46.714;17.322;2023-07-31T07:29:55;100418.03;;;23.84;75.10
64521;BME280;50896;46.714;17.322;2023-07-31T07:32:32;100415.69;;;23.88;76.51
64521;BME280;50896;46.714;17.322;2023-07-31T07:35:01;100417.56;;;23.87;56.62
64521;BME280;50896;46.714;17.322;2023-07-31T07:37:30;100411.13;;;23.94;56.27
64521;BME280;50896;46.714;17.322;2023-07-31T07:40:02;100406.91;;;23.86;51.81
64521;BME280;50896;46.714;17.322;2023-07-31T07:42:29;100410.06;;;23.95;56.59
64521;BME280;50896;46.714;17.322;2023-07-31T07:45:09;100401.09;;;23.94;55.85
64521;BME280;50896;46.714;17.322;2023-07-31T07:47:41;100398.19;;;24.01;56.97
64521;BME280;50896;46.714;17.322;2023-07-31T07:50:12;100399.50;;;23.98;55.38
64521;BME280;50896;46.714;17.322;2023-07-31T07:52:48;100393.34;;;24.03;55.25
64521;BME280;50896;46.714;17.322;2023-07-31T07:55:21;100392.56;;;24.08;53.50
64521;BME280;50896;46.714;17.322;2023-07-31T07:57:51;100391.56;;;24.14;54.55
64521;BME280;50896;46.714;17.322;2023-07-31T08:00:24;100386.31;;;24.07;51.71
64521;BME280;50896;46.714;17.322;2023-07-31T08:02:53;100386.38;;;24.12;53.87
64521;BME280;50896;46.714;17.322;2023-07-31T08:05:23;100383.16;;;24.15;52.62
64521;BME280;50896;46.714;17.322;2023-07-31T08:07:52;100394.97;;;24.26;55.40
64521;BME280;50896;46.714;17.322;2023-07-31T08:10:27;100386.53;;;24.22;53.88
64521;BME280;50896;46.714;17.322;2023-07-31T08:12:59;100383.09;;;24.32;57.82
64521;BME280;50896;46.714;17.322;2023-07-31T08:15:29;100380.13;;;24.34;55.56
64521;BME280;50896;46.714;17.322;2023-07-31T08:17:59;100381.25;;;24.38;57.33
64521;BME280;50896;46.714;17.322;2023-07-31T08:20:34;100372.47;;;24.31;56.86
64521;BME280;50896;46.714;17.322;2023-07-31T08:23:05;100377.72;;;24.15;56.37
64521;BME280;50896;46.714;17.322;2023-07-31T08:25:51;100382.72;;;24.23;56.26
64521;BME280;50896;46.714;17.322;2023-07-31T08:28:25;100391.44;;;24.26;55.44
64521;BME280;50896;46.714;17.322;2023-07-31T08:31:00;100392.00;;;24.28;53.14
64521;BME280;50896;46.714;17.322;2023-07-31T08:33:28;100393.09;;;24.27;52.77
64521;BME280;50896;46.714;17.322;2023-07-31T08:36:01;100399.41;;;24.32;49.71
64521;BME280;50896;46.714;17.322;2023-07-31T08:38:37;100400.72;;;24.30;52.79
64521;BME280;50896;46.714;17.322;2023-07-31T08:41:09;100402.31;;;24.26;52.38
64521;BME280;50896;46.714;17.322;2023-07-31T08:43:38;100395.53;;;24.28;53.85
64521;BME280;50896;46.714;17.322;2023-07-31T08:46:12;100384.97;;;24.32;51.82
64521;BME280;50896;46.714;17.322;2023-07-31T08:48:44;100401.53;;;24.30;52.65
64521;BME280;50896;46.714;17.322;2023-07-31T08:51:17;100405.00;;;24.26;50.55
64521;BME280;50896;46.714;17.322;2023-07-31T08:53:49;100406.00;;;24.19;51.33
64521;BME280;50896;46.714;17.322;2023-07-31T08:56:34;100407.28;;;24.12;54.35
64521;BME280;50896;46.714;17.322;2023-07-31T08:59:07;100401.22;;;24.04;52.33
64521;BME280;50896;46.714;17.322;2023-07-31T09:01:43;100400.78;;;24.13;53.50
64521;BME280;50896;46.714;17.322;2023-07-31T09:04:17;100409.56;;;24.20;52.64
64521;BME280;50896;46.714;17.322;2023-07-31T09:06:50;100407.16;;;24.23;53.43
64521;BME280;50896;46.714;17.322;2023-07-31T09:09:28;100398.53;;;24.27;51.33
64521;BME280;50896;46.714;17.322;2023-07-31T09:12:05;100404.75;;;24.27;49.77
64521;BME280;50896;46.714;17.322;2023-07-31T09:14:38;100401.94;;;24.17;50.00
64521;BME280;50896;46.714;17.322;2023-07-31T09:17:09;100402.84;;;24.28;51.66
64521;BME280;50896;46.714;17.322;2023-07-31T09:19:39;100398.03;;;24.35;54.50
64521;BME280;50896;46.714;17.322;2023-07-31T09:22:07;100399.50;;;24.43;54.73
64521;BME280;50896;46.714;17.322;2023-07-31T09:24:38;100396.53;;;24.44;51.35
64521;BME280;50896;46.714;17.322;2023-07-31T09:27:09;100400.69;;;24.52;51.04
64521;BME280;50896;46.714;17.322;2023-07-31T09:29:38;100397.66;;;24.48;51.45
64521;BME280;50896;46.714;17.322;2023-07-31T09:32:16;100391.69;;;24.51;50.62
64521;BME280;50896;46.714;17.322;2023-07-31T09:34:47;100393.88;;;24.49;51.80
64521;BME280;50896;46.714;17.322;2023-07-31T09:37:16;100383.59;;;24.29;52.05
64521;BME280;50896;46.714;17.322;2023-07-31T09:39:48;100385.03;;;24.37;52.06
64521;BME280;50896;46.714;17.322;2023-07-31T09:42:40;100381.88;;;24.45;52.03
64521;BME280;50896;46.714;17.322;2023-07-31T09:45:11;100380.84;;;24.51;53.29
64521;BME280;50896;46.714;17.322;2023-07-31T09:47:52;100381.34;;;24.48;52.62
64521;BME280;50896;46.714;17.322;2023-07-31T09:50:23;100374.78;;;24.44;51.97
64521;BME280;50896;46.714;17.322;2023-07-31T09:52:54;100378.97;;;24.52;51.62
64521;BME280;50896;46.714;17.322;2023-07-31T09:55:29;100381.69;;;24.57;51.66
64521;BME280;50896;46.714;17.322;2023-07-31T09:57:59;100381.16;;;24.55;51.89
64521;BME280;50896;46.714;17.322;2023-07-31T10:00:36;100384.53;;;24.40;52.33
64521;BME280;50896;46.714;17.322;2023-07-31T10:03:09;100382.88;;;24.39;53.84
64521;BME280;50896;46.714;17.322;2023-07-31T10:05:43;100376.44;;;24.45;51.46
64521;BME280;50896;46.714;17.322;2023-07-31T10:08:20;100375.50;;;24.34;53.15
64521;BME280;50896;46.714;17.322;2023-07-31T10:10:51;100372.88;;;24.45;53.98
64521;BME280;50896;46.714;17.322;2023-07-31T10:13:20;100373.72;;;24.45;54.15
64521;BME280;50896;46.714;17.322;2023-07-31T10:15:56;100365.50;;;24.40;53.27
64521;BME280;50896;46.714;17.322;2023-07-31T10:18:26;100358.94;;;24.36;52.87
64521;BME280;50896;46.714;17.322;2023-07-31T10:21:03;100364.88;;;24.33;54.83
64521;BME280;50896;46.714;17.322;2023-07-31T10:23:36;100362.72;;;24.35;53.49
64521;BME280;50896;46.714;17.322;2023-07-31T10:26:18;100354.38;;;24.42;52.96
64521;BME280;50896;46.714;17.322;2023-07-31T10:28:51;100361.34;;;24.60;52.88
64521;BME280;50896;46.714;17.322;2023-07-31T10:31:27;100358.34;;;24.56;52.84
64521;BME280;50896;46.714;17.322;2023-07-31T10:34:04;100351.53;;;24.53;52.92
64521;BME280;50896;46.714;17.322;2023-07-31T10:36:33;100353.19;;;24.60;54.75
64521;BME280;50896;46.714;17.322;2023-07-31T10:39:03;100347.84;;;24.65;54.16
64521;BME280;50896;46.714;17.322;2023-07-31T10:41:37;100344.06;;;24.66;52.20
64521;BME280;50896;46.714;17.322;2023-07-31T10:44:08;100338.91;;;24.69;52.55
64521;BME280;50896;46.714;17.322;2023-07-31T10:46:39;100336.13;;;24.64;52.25
64521;BME280;50896;46.714;17.322;2023-07-31T10:49:21;100338.09;;;24.69;52.79
64521;BME280;50896;46.714;17.322;2023-07-31T10:51:55;100336.03;;;24.81;51.82
64521;BME280;50896;46.714;17.322;2023-07-31T10:54:23;100329.56;;;24.87;53.11
64521;BME280;50896;46.714;17.322;2023-07-31T10:56:57;100332.00;;;24.89;52.00
64521;BME280;50896;46.714;17.322;2023-07-31T10:59:27;100337.81;;;25.03;52.51
64521;BME280;50896;46.714;17.322;2023-07-31T11:01:57;100332.75;;;25.17;52.38
64521;BME280;50896;46.714;17.322;2023-07-31T11:04:26;100327.19;;;25.34;50.92
64521;BME280;50896;46.714;17.322;2023-07-31T11:07:00;100330.25;;;25.42;50.40
64521;BME280;50896;46.714;17.322;2023-07-31T11:09:32;100324.00;;;25.47;52.28
64521;BME280;50896;46.714;17.322;2023-07-31T11:12:19;100319.97;;;25.60;52.15
64521;BME280;50896;46.714;17.322;2023-07-31T11:14:55;100310.00;;;25.76;53.41
64521;BME280;50896;46.714;17.322;2023-07-31T11:17:25;100315.75;;;25.95;50.20
64521;BME280;50896;46.714;17.322;2023-07-31T11:20:01;100307.94;;;26.04;52.06
64521;BME280;50896;46.714;17.322;2023-07-31T11:22:35;100305.22;;;26.09;51.57
64521;BME280;50896;46.714;17.322;2023-07-31T11:25:05;100298.13;;;26.13;49.18
64521;BME280;50896;46.714;17.322;2023-07-31T11:27:41;100300.91;;;26.23;48.60
64521;BME280;50896;46.714;17.322;2023-07-31T11:30:11;100292.72;;;26.29;48.79
64521;BME280;50896;46.714;17.322;2023-07-31T11:32:40;100299.81;;;26.35;48.24
64521;BME280;50896;46.714;17.322;2023-07-31T11:35:14;100291.09;;;26.38;48.76
64521;BME280;50896;46.714;17.322;2023-07-31T11:37:49;100284.28;;;26.30;48.01
64521;BME280;50896;46.714;17.322;2023-07-31T11:40:17;100291.66;;;26.35;48.20
64521;BME280;50896;46.714;17.322;2023-07-31T11:43:04;100291.09;;;26.33;48.68
64521;BME280;50896;46.714;17.322;2023-07-31T11:45:33;100288.38;;;26.43;50.54
64521;BME280;50896;46.714;17.322;2023-07-31T11:48:04;100275.56;;;26.43;48.67
64521;BME280;50896;46.714;17.322;2023-07-31T11:50:38;100282.09;;;26.58;49.46
64521;BME280;50896;46.714;17.322;2023-07-31T11:53:09;100275.59;;;26.69;47.58
64521;BME280;50896;46.714;17.322;2023-07-31T11:55:38;100276.97;;;26.82;49.29
64521;BME280;50896;46.714;17.322;2023-07-31T11:58:09;100271.22;;;26.94;48.14
64521;BME280;50896;46.714;17.322;2023-07-31T12:00:40;100276.41;;;26.90;47.09
64521;BME280;50896;46.714;17.322;2023-07-31T12:03:13;100278.84;;;26.82;48.69
64521;BME280;50896;46.714;17.322;2023-07-31T12:06:04;100270.69;;;26.82;47.33
64521;BME280;50896;46.714;17.322;2023-07-31T12:08:39;100267.41;;;26.80;48.04
64521;BME280;50896;46.714;17.322;2023-07-31T12:11:21;100265.50;;;26.80;49.80
64521;BME280;50896;46.714;17.322;2023-07-31T12:13:52;100255.97;;;26.83;47.76
64521;BME280;50896;46.714;17.322;2023-07-31T12:16:26;100250.50;;;26.83;48.70
64521;BME280;50896;46.714;17.322;2023-07-31T12:18:55;100253.25;;;26.72;49.06
64521;BME280;50896;46.714;17.322;2023-07-31T12:21:22;100243.94;;;26.63;47.12
64521;BME280;50896;46.714;17.322;2023-07-31T12:23:51;100242.59;;;26.55;48.78
64521;BME280;50896;46.714;17.322;2023-07-31T12:26:21;100235.22;;;26.51;50.19
64521;BME280;50896;46.714;17.322;2023-07-31T12:28:55;100222.97;;;26.53;48.18
64521;BME280;50896;46.714;17.322;2023-07-31T12:31:54;100220.50;;;26.41;48.84
64521;BME280;50896;46.714;17.322;2023-07-31T12:34:24;100226.25;;;26.45;49.77
64521;BME280;50896;46.714;17.322;2023-07-31T12:37:02;100219.44;;;26.48;49.25
64521;BME280;50896;46.714;17.322;2023-07-31T12:39:33;100216.69;;;26.42;48.82
64521;BME280;50896;46.714;17.322;2023-07-31T12:42:03;100210.44;;;26.26;48.96
64521;BME280;50896;46.714;17.322;2023-07-31T12:44:35;100220.78;;;26.24;51.08
64521;BME280;50896;46.714;17.322;2023-07-31T12:47:05;100206.09;;;26.25;51.56
64521;BME280;50896;46.714;17.322;2023-07-31T12:49:33;100205.28;;;26.25;50.28
64521;BME280;50896;46.714;17.322;2023-07-31T12:52:01;100195.19;;;26.25;49.57
64521;BME280;50896;46.714;17.322;2023-07-31T12:54:32;100205.53;;;26.18;50.30
64521;BME280;50896;46.714;17.322;2023-07-31T12:57:09;100200.06;;;26.08;50.60
64521;BME280;50896;46.714;17.322;2023-07-31T12:59:44;100198.66;;;25.95;51.57
64521;BME280;50896;46.714;17.322;2023-07-31T13:02:19;100191.56;;;25.84;50.64
64521;BME280;50896;46.714;17.322;2023-07-31T13:04:57;100184.78;;;25.86;51.69
64521;BME280;50896;46.714;17.322;2023-07-31T13:07:33;100179.63;;;26.00;50.85